Time;durP1;ratioP1;P1;durP2;ratioP2;P2;SDS_P1;SDS_P2;PMS_P1;PMS_P2;Temp;Humidity;BMP_temperature;BMP_pressure;BME280_temperature;BME280_humidity;BME280_pressure;Samples;Min_cycle;Max_cycle;Signal;HPM_P1;HPM_P2
2021/04/16 00:02:18;;;;;;;21.35;13.35;;;4.20;81.70;;;;;;5046403;28;20044;-73
2021/04/16 00:04:44;;;;;;;22.02;13.48;;;4.20;81.80;;;;;;5045617;28;20124;-76
2021/04/16 00:07:10;;;;;;;21.17;14.00;;;4.20;81.90;;;;;;5036946;28;20068;-72
2021/04/16 00:09:36;;;;;;;22.52;15.10;;;4.20;81.90;;;;;;5042595;28;20030;-73
2021/04/16 00:12:03;;;;;;;22.63;13.77;;;4.20;81.80;;;;;;5037338;28;20034;-72
2021/04/16 00:14:29;;;;;;;20.60;14.35;;;4.10;81.90;;;;;;5035905;28;20504;-71
2021/04/16 00:16:54;;;;;;;19.67;14.43;;;4.20;81.80;;;;;;5047102;28;20048;-72
2021/04/16 00:19:20;;;;;;;21.58;14.20;;;4.20;82.00;;;;;;5044301;28;20083;-70
2021/04/16 00:21:47;;;;;;;22.20;15.25;;;4.10;81.80;;;;;;5034847;28;20026;-71
2021/04/16 00:24:13;;;;;;;22.83;15.32;;;4.10;82.00;;;;;;5040667;28;20048;-73
2021/04/16 00:26:41;;;;;;;26.50;15.90;;;4.10;82.10;;;;;;5047201;28;20453;-73
2021/04/16 00:29:07;;;;;;;21.13;15.48;;;4.10;82.10;;;;;;5045981;28;20029;-71
2021/04/16 00:31:33;;;;;;;23.27;15.93;;;4.10;82.20;;;;;;5044967;28;20024;-71
2021/04/16 00:34:02;;;;;;;21.50;15.15;;;4.00;82.30;;;;;;5038009;28;20053;-71
2021/04/16 00:36:29;;;;;;;24.05;16.58;;;3.90;82.20;;;;;;5041383;28;20041;-71
2021/04/16 00:38:55;;;;;;;26.23;17.05;;;3.90;82.30;;;;;;5041616;28;20124;-72
2021/04/16 00:41:29;;;;;;;25.55;16.95;;;3.90;82.50;;;;;;5044846;28;20527;-72
2021/04/16 00:43:55;;;;;;;23.40;17.02;;;3.80;82.60;;;;;;5041588;28;20059;-72
2021/04/16 00:46:44;;;;;;;26.63;18.50;;;3.80;82.70;;;;;;5043678;28;20037;-71
2021/04/16 00:49:16;;;;;;;25.23;17.88;;;3.70;83.10;;;;;;5042474;28;20033;-72
2021/04/16 00:51:46;;;;;;;26.10;18.13;;;3.70;83.30;;;;;;5044542;28;20044;-71
2021/04/16 00:54:40;;;;;;;28.67;18.50;;;3.70;83.60;;;;;;5044257;28;20021;-71
2021/04/16 00:57:07;;;;;;;27.73;18.05;;;3.70;83.60;;;;;;5049955;28;20363;-73
2021/04/16 00:59:37;;;;;;;29.17;18.58;;;3.60;83.70;;;;;;5063154;28;20037;-73
2021/04/16 01:02:03;;;;;;;27.23;17.33;;;3.70;83.70;;;;;;5066499;28;20459;-74
2021/04/16 01:04:31;;;;;;;28.55;18.42;;;3.60;83.70;;;;;;5069873;28;20439;-71
2021/04/16 01:06:58;;;;;;;27.30;18.88;;;3.60;83.80;;;;;;5063827;28;20024;-72
2021/04/16 01:09:24;;;;;;;32.05;19.00;;;3.70;83.70;;;;;;5070067;28;20021;-75
2021/04/16 01:11:50;;;;;;;38.67;19.63;;;3.60;83.80;;;;;;5062382;28;20262;-71
2021/04/16 01:14:17;;;;;;;27.88;18.48;;;3.60;83.70;;;;;;5068899;28;20359;-71
2021/04/16 01:16:43;;;;;;;28.60;18.98;;;3.60;83.80;;;;;;5075738;28;20032;-72
2021/04/16 01:19:21;;;;;;;28.45;19.40;;;3.60;83.90;;;;;;5060945;28;20025;-70
2021/04/16 01:21:54;;;;;;;26.40;19.52;;;3.60;83.70;;;;;;5050014;28;20479;-72
2021/04/16 01:24:29;;;;;;;26.17;20.13;;;3.60;83.70;;;;;;5064918;28;20470;-72
2021/04/16 01:26:55;;;;;;;29.90;19.38;;;3.60;83.40;;;;;;5063410;28;20059;-69
2021/04/16 01:29:22;;;;;;;27.67;18.90;;;3.50;83.40;;;;;;5058901;28;20034;-72
2021/04/16 01:31:48;;;;;;;28.70;19.38;;;3.50;83.40;;;;;;5043869;28;20036;-70
2021/04/16 01:34:25;;;;;;;29.35;19.30;;;3.50;83.40;;;;;;5042884;28;20021;-69
2021/04/16 01:36:53;;;;;;;30.52;20.02;;;3.50;83.40;;;;;;5050550;28;20396;-72
2021/04/16 01:39:20;;;;;;;28.92;19.27;;;3.50;83.50;;;;;;5047396;28;20040;-73
2021/04/16 01:41:46;;;;;;;28.27;19.67;;;3.40;83.40;;;;;;5034569;28;20630;-70
2021/04/16 01:44:14;;;;;;;27.38;18.73;;;3.40;83.40;;;;;;5038468;28;20029;-69
2021/04/16 01:47:01;;;;;;;26.08;19.50;;;3.40;83.40;;;;;;5043377;28;20037;-69
2021/04/16 01:49:30;;;;;;;25.88;19.50;;;3.40;83.40;;;;;;5052589;28;20025;-70
2021/04/16 01:51:57;;;;;;;26.00;19.20;;;3.40;83.20;;;;;;5059088;28;20032;-72
2021/04/16 01:54:32;;;;;;;25.73;18.40;;;3.40;83.10;;;;;;5061191;28;20044;-70
2021/04/16 01:57:02;;;;;;;24.50;17.70;;;3.40;83.10;;;;;;5060383;28;20044;-73
2021/04/16 01:59:30;;;;;;;28.77;19.55;;;3.30;82.90;;;;;;5065588;28;20082;-74
2021/04/16 02:01:57;;;;;;;30.88;20.13;;;3.30;82.90;;;;;;5059224;28;20056;-71
2021/04/16 02:04:23;;;;;;;29.10;19.02;;;3.30;82.90;;;;;;5064382;28;20135;-71
2021/04/16 02:06:50;;;;;;;28.75;18.67;;;3.30;82.90;;;;;;5062241;28;20115;-72
2021/04/16 02:09:20;;;;;;;25.50;18.52;;;3.20;82.90;;;;;;5066744;28;20032;-72
2021/04/16 02:11:47;;;;;;;26.30;19.33;;;3.20;82.80;;;;;;5056682;28;20176;-71
2021/04/16 02:14:14;;;;;;;27.85;18.27;;;3.20;82.70;;;;;;5051609;28;20036;-72
2021/04/16 02:16:44;;;;;;;25.63;18.33;;;3.10;82.80;;;;;;5057618;28;20120;-72
2021/04/16 02:19:12;;;;;;;27.90;18.90;;;3.10;82.80;;;;;;5058328;28;20036;-71
2021/04/16 02:21:38;;;;;;;25.85;17.65;;;3.10;82.70;;;;;;5062424;28;20460;-70
2021/04/16 02:24:05;;;;;;;27.00;18.17;;;3.10;82.90;;;;;;5059747;28;20366;-69
2021/04/16 02:26:31;;;;;;;26.17;18.15;;;3.10;82.70;;;;;;5060072;28;20025;-71
2021/04/16 02:28:57;;;;;;;23.77;17.65;;;3.00;82.60;;;;;;5066183;28;20089;-71
2021/04/16 02:31:22;;;;;;;25.17;17.95;;;3.10;82.50;;;;;;5067672;28;20090;-72
2021/04/16 02:33:48;;;;;;;25.67;16.52;;;3.10;82.40;;;;;;5071874;28;20036;-69
2021/04/16 02:36:14;;;;;;;21.70;16.40;;;3.10;82.10;;;;;;5061998;28;20049;-71
2021/04/16 02:38:40;;;;;;;25.30;16.27;;;3.00;82.10;;;;;;5066472;28;20028;-71
2021/04/16 02:41:06;;;;;;;23.27;15.13;;;3.00;82.00;;;;;;5068397;28;20029;-69
2021/04/16 02:43:32;;;;;;;20.25;15.88;;;3.00;81.80;;;;;;5063429;28;20103;-71
2021/04/16 02:45:58;;;;;;;26.23;15.05;;;3.00;81.70;;;;;;5057637;28;20491;-69
2021/04/16 02:48:23;;;;;;;23.38;15.00;;;3.00;81.40;;;;;;5062067;28;20049;-69
2021/04/16 02:50:49;;;;;;;21.95;15.65;;;3.00;81.30;;;;;;5060738;28;20476;-69
2021/04/16 02:53:15;;;;;;;20.95;14.60;;;3.00;81.10;;;;;;5061304;28;20691;-70
2021/04/16 02:55:41;;;;;;;21.92;15.40;;;2.90;81.00;;;;;;5069240;28;20036;-69
2021/04/16 02:58:07;;;;;;;18.77;13.85;;;2.90;81.00;;;;;;5062089;28;20102;-71
2021/04/16 03:00:33;;;;;;;21.20;14.32;;;2.90;80.90;;;;;;5068326;28;20036;-70
2021/04/16 03:02:59;;;;;;;21.77;14.38;;;2.90;80.70;;;;;;5068746;28;20037;-73
2021/04/16 03:05:25;;;;;;;20.65;14.95;;;2.90;80.60;;;;;;5066672;28;20038;-72
2021/04/16 03:07:52;;;;;;;23.52;14.07;;;2.90;80.40;;;;;;5061935;28;20055;-74
2021/04/16 03:10:21;;;;;;;24.23;15.40;;;2.90;80.40;;;;;;5064277;28;20032;-73
2021/04/16 03:12:47;;;;;;;23.13;14.15;;;2.90;80.20;;;;;;5068608;28;20100;-69
2021/04/16 03:15:13;;;;;;;19.30;12.80;;;2.80;80.00;;;;;;5065481;28;20120;-72
2021/04/16 03:17:39;;;;;;;17.30;13.15;;;2.80;79.90;;;;;;5059983;28;20485;-71
2021/04/16 03:20:07;;;;;;;23.02;15.60;;;2.80;79.90;;;;;;5062754;28;20503;-76
2021/04/16 03:22:33;;;;;;;22.08;14.02;;;2.80;79.80;;;;;;5067269;28;20025;-76
2021/04/16 03:24:59;;;;;;;20.75;12.65;;;2.80;79.60;;;;;;5063113;28;20048;-69
2021/04/16 03:27:25;;;;;;;22.48;11.93;;;2.80;79.40;;;;;;5057885;28;20043;-71
2021/04/16 03:29:51;;;;;;;19.65;11.63;;;2.80;79.40;;;;;;5064989;28;20083;-71
2021/04/16 03:32:16;;;;;;;18.52;12.10;;;2.70;79.30;;;;;;5065895;28;20024;-69
2021/04/16 03:34:42;;;;;;;16.45;10.93;;;2.70;79.10;;;;;;5064855;28;20037;-69
2021/04/16 03:37:08;;;;;;;21.00;11.35;;;2.70;79.00;;;;;;5066626;28;20047;-71
2021/04/16 03:39:33;;;;;;;14.82;10.52;;;2.70;79.00;;;;;;5065332;28;20075;-69
2021/04/16 03:41:59;;;;;;;16.52;9.75;;;2.70;78.90;;;;;;5064998;28;20052;-71
2021/04/16 03:44:25;;;;;;;18.15;9.95;;;2.70;78.80;;;;;;5067046;28;20599;-72
2021/04/16 03:46:50;;;;;;;15.70;9.63;;;2.60;78.80;;;;;;5068298;28;20032;-72
2021/04/16 03:49:16;;;;;;;15.63;9.95;;;2.60;78.80;;;;;;5061105;28;20029;-71
2021/04/16 03:51:58;;;;;;;17.90;10.35;;;2.60;78.60;;;;;;5067971;28;20935;-71
2021/04/16 03:54:24;;;;;;;19.08;10.20;;;2.60;78.40;;;;;;5065067;28;20097;-71
2021/04/16 03:56:50;;;;;;;15.88;9.02;;;2.60;78.40;;;;;;5065658;28;20040;-71
2021/04/16 03:59:18;;;;;;;16.05;9.68;;;2.60;78.40;;;;;;5081367;28;20119;-72
2021/04/16 04:01:44;;;;;;;14.60;9.00;;;2.60;78.20;;;;;;5057377;28;20028;-72
2021/04/16 04:04:10;;;;;;;14.32;9.18;;;2.60;78.20;;;;;;5063309;28;20036;-71
2021/04/16 04:06:35;;;;;;;12.27;7.90;;;2.50;78.30;;;;;;5054495;28;20357;-71
2021/04/16 04:09:02;;;;;;;12.07;7.57;;;2.50;78.20;;;;;;5059865;28;20083;-72
2021/04/16 04:11:28;;;;;;;11.52;7.70;;;2.50;78.20;;;;;;5054391;28;20032;-72
2021/04/16 04:13:54;;;;;;;13.55;7.90;;;2.50;78.10;;;;;;5062637;28;20037;-71
2021/04/16 04:16:20;;;;;;;12.65;8.18;;;2.50;77.80;;;;;;5065245;28;20040;-71
2021/04/16 04:18:46;;;;;;;11.88;8.00;;;2.50;77.90;;;;;;5065138;28;20037;-71
2021/04/16 04:21:11;;;;;;;10.85;7.75;;;2.40;77.70;;;;;;5066647;28;20449;-71
2021/04/16 04:23:37;;;;;;;11.30;7.95;;;2.40;77.80;;;;;;5060013;28;20048;-74
2021/04/16 04:26:03;;;;;;;13.15;8.65;;;2.50;77.70;;;;;;5061807;28;20036;-72
2021/04/16 04:28:29;;;;;;;19.20;9.20;;;2.40;77.60;;;;;;5066546;28;20072;-71
2021/04/16 04:30:55;;;;;;;13.52;8.43;;;2.40;77.70;;;;;;5064790;28;20060;-71
2021/04/16 04:33:21;;;;;;;13.55;8.68;;;2.40;77.70;;;;;;5064588;28;20028;-71
2021/04/16 04:35:46;;;;;;;15.55;8.20;;;2.40;77.70;;;;;;5066665;28;20032;-71
2021/04/16 04:38:12;;;;;;;15.23;8.55;;;2.30;77.90;;;;;;5062447;28;20033;-72
2021/04/16 04:40:38;;;;;;;16.75;9.60;;;2.30;78.10;;;;;;5063439;28;20028;-75
2021/04/16 04:43:04;;;;;;;14.50;8.30;;;2.30;77.90;;;;;;5064389;28;20259;-73
2021/04/16 04:45:30;;;;;;;13.20;8.27;;;2.30;77.90;;;;;;5063157;28;20033;-71
2021/04/16 04:47:56;;;;;;;12.95;8.07;;;2.30;78.00;;;;;;5065545;28;20527;-70
2021/04/16 04:50:23;;;;;;;15.15;8.40;;;2.30;78.00;;;;;;5060593;28;20045;-70
2021/04/16 04:52:48;;;;;;;13.98;7.93;;;2.30;78.10;;;;;;5058159;28;20036;-70
2021/04/16 04:55:18;;;;;;;15.80;9.00;;;2.30;78.10;;;;;;5046426;28;20411;-66
2021/04/16 04:57:43;;;;;;;13.18;7.45;;;2.30;78.20;;;;;;5051909;28;20028;-67
2021/04/16 05:00:11;;;;;;;14.60;7.82;;;2.30;78.00;;;;;;5066300;28;20036;-67
2021/04/16 05:02:38;;;;;;;11.38;6.78;;;2.40;77.70;;;;;;5065582;28;20067;-66
2021/04/16 05:05:04;;;;;;;13.13;7.72;;;2.40;77.50;;;;;;5061592;28;20064;-66
2021/04/16 05:07:30;;;;;;;11.52;8.13;;;2.40;77.50;;;;;;5058529;28;20033;-66
2021/04/16 05:09:55;;;;;;;12.73;7.50;;;2.40;77.50;;;;;;5063466;28;20519;-68
2021/04/16 05:12:21;;;;;;;13.40;7.30;;;2.40;77.40;;;;;;5043859;28;20508;-66
2021/04/16 05:14:47;;;;;;;13.82;8.10;;;2.40;77.60;;;;;;5041926;28;20098;-68
2021/04/16 05:17:13;;;;;;;12.20;7.38;;;2.40;77.50;;;;;;5046264;28;20037;-66
2021/04/16 05:19:38;;;;;;;13.88;7.65;;;2.40;77.50;;;;;;5043601;28;20549;-67
2021/04/16 05:22:05;;;;;;;11.63;7.60;;;2.50;77.40;;;;;;5039383;28;20529;-68
2021/04/16 05:24:32;;;;;;;12.70;7.00;;;2.50;77.20;;;;;;5042584;28;20037;-70
2021/04/16 05:27:07;;;;;;;12.63;7.53;;;2.60;77.00;;;;;;5041912;28;20424;-67
2021/04/16 05:29:33;;;;;;;12.10;7.25;;;2.60;76.90;;;;;;5040430;28;20029;-65
2021/04/16 05:31:59;;;;;;;11.77;6.95;;;2.60;77.00;;;;;;5037780;28;20048;-70
2021/04/16 05:34:26;;;;;;;13.95;7.10;;;2.60;76.80;;;;;;5049449;28;20046;-65
2021/04/16 05:36:52;;;;;;;13.70;6.50;;;2.70;76.60;;;;;;5052204;28;20399;-66
2021/04/16 05:39:17;;;;;;;13.52;7.18;;;2.70;76.60;;;;;;5063101;28;20139;-67
2021/04/16 05:41:43;;;;;;;12.55;6.95;;;2.80;76.60;;;;;;5061004;28;20116;-70
2021/04/16 05:44:09;;;;;;;12.00;7.32;;;2.80;76.50;;;;;;5058011;28;20036;-68
2021/04/16 05:46:35;;;;;;;12.18;7.35;;;2.80;76.30;;;;;;5059233;28;20044;-66
2021/04/16 05:49:01;;;;;;;13.75;8.20;;;2.80;76.40;;;;;;5064489;28;20082;-65
2021/04/16 05:51:27;;;;;;;15.65;7.88;;;2.80;76.50;;;;;;5063710;28;20036;-66
2021/04/16 05:53:53;;;;;;;13.85;8.00;;;2.80;76.40;;;;;;5057441;28;20542;-67
2021/04/16 05:56:19;;;;;;;14.23;7.90;;;2.90;76.40;;;;;;5052709;28;20041;-65
2021/04/16 05:58:45;;;;;;;12.48;7.38;;;2.90;76.40;;;;;;5062239;28;20067;-68
2021/04/16 06:01:10;;;;;;;13.45;7.40;;;2.90;76.30;;;;;;5058586;28;20562;-68
2021/04/16 06:03:39;;;;;;;12.43;7.25;;;3.10;76.30;;;;;;5062787;28;20689;-67
2021/04/16 06:06:05;;;;;;;13.00;7.20;;;3.10;76.30;;;;;;5052715;28;20044;-68
2021/04/16 06:08:31;;;;;;;14.82;7.60;;;3.20;76.20;;;;;;5049896;28;20542;-68
2021/04/16 06:10:57;;;;;;;13.13;8.48;;;3.20;76.20;;;;;;5049439;28;20057;-68
2021/04/16 06:13:24;;;;;;;11.27;7.68;;;3.20;76.10;;;;;;5040322;28;20095;-67
2021/04/16 06:15:51;;;;;;;12.45;7.70;;;3.30;76.30;;;;;;5051121;28;20070;-67
2021/04/16 06:18:16;;;;;;;13.32;7.72;;;3.30;76.30;;;;;;5053499;28;20560;-67
2021/04/16 06:20:42;;;;;;;15.43;7.00;;;3.40;76.30;;;;;;5044487;28;20056;-66
2021/04/16 06:23:08;;;;;;;11.75;7.18;;;3.40;76.40;;;;;;5039758;28;20029;-67
2021/04/16 06:25:34;;;;;;;13.02;7.70;;;3.40;76.40;;;;;;5040481;28;20033;-66
2021/04/16 06:28:01;;;;;;;12.13;7.25;;;3.50;76.30;;;;;;5042609;28;20052;-70
2021/04/16 06:30:27;;;;;;;11.70;7.57;;;3.60;76.30;;;;;;5038864;28;20036;-66
2021/04/16 06:33:26;;;;;;;14.65;7.28;;;3.60;76.30;;;;;;5045053;28;20040;-66
2021/04/16 06:35:59;;;;;;;13.30;7.65;;;3.70;76.10;;;;;;5060533;28;20396;-65
2021/04/16 06:38:31;;;;;;;11.95;6.88;;;3.80;75.90;;;;;;5064938;28;20606;-66
2021/04/16 06:40:59;;;;;;;17.50;8.23;;;3.80;76.20;;;;;;5064908;28;20102;-70
2021/04/16 06:43:37;;;;;;;13.88;8.20;;;3.90;75.90;;;;;;5040845;28;20476;-69
2021/04/16 06:46:03;;;;;;;11.60;7.25;;;4.10;75.90;;;;;;5042969;28;20401;-67
2021/04/16 06:48:29;;;;;;;11.25;7.13;;;4.20;75.80;;;;;;5045253;28;20025;-69
2021/04/16 06:51:00;;;;;;;11.82;7.60;;;4.20;75.50;;;;;;5051325;28;20033;-67
2021/04/16 06:53:50;;;;;;;12.68;8.13;;;4.40;75.60;;;;;;5039722;28;20139;-67
2021/04/16 06:56:41;;;;;;;12.80;7.30;;;4.50;75.40;;;;;;5034985;28;20085;-67
2021/04/16 06:59:13;;;;;;;14.02;7.90;;;4.60;74.80;;;;;;5039791;28;20112;-68
2021/04/16 07:01:52;;;;;;;14.48;8.30;;;4.70;74.80;;;;;;5041143;28;20476;-67
2021/04/16 07:04:49;;;;;;;14.43;7.95;;;4.90;74.70;;;;;;5050154;28;20035;-70
2021/04/16 07:07:27;;;;;;;14.68;7.82;;;5.00;74.00;;;;;;5043702;28;20052;-68
2021/04/16 07:10:11;;;;;;;15.95;7.43;;;5.10;73.60;;;;;;5033837;28;20393;-67
2021/04/16 07:12:38;;;;;;;12.13;7.60;;;5.20;73.30;;;;;;5035526;28;20044;-66
2021/04/16 07:15:10;;;;;;;12.75;8.48;;;5.30;73.10;;;;;;5040565;28;20465;-66
2021/04/16 07:17:42;;;;;;;17.60;9.07;;;5.40;72.90;;;;;;5037127;28;20080;-71
2021/04/16 07:20:10;;;;;;;19.33;10.20;;;5.50;72.30;;;;;;5037287;28;20040;-68
2021/04/16 07:22:41;;;;;;;16.85;9.98;;;5.60;72.20;;;;;;5037897;28;20590;-67
2021/04/16 07:25:34;;;;;;;15.70;9.98;;;5.70;72.40;;;;;;5040235;28;20122;-69
2021/04/16 07:28:06;;;;;;;15.93;10.60;;;5.90;71.40;;;;;;5043303;28;20128;-67
2021/04/16 07:30:47;;;;;;;19.60;10.73;;;6.00;70.70;;;;;;5041970;28;20396;-71
2021/04/16 07:33:31;;;;;;;18.20;9.88;;;6.10;70.90;;;;;;5038243;28;20064;-71
2021/04/16 07:36:25;;;;;;;16.50;10.40;;;6.30;70.20;;;;;;5034583;28;20045;-67
2021/04/16 07:39:01;;;;;;;19.92;11.20;;;6.30;69.90;;;;;;5041813;28;20050;-69
2021/04/16 07:41:30;;;;;;;16.88;9.00;;;6.50;69.90;;;;;;5038899;28;20032;-68
2021/04/16 07:44:00;;;;;;;14.95;8.32;;;6.70;67.70;;;;;;5037876;28;20037;-70
2021/04/16 07:46:25;;;;;;;18.58;8.48;;;6.90;67.10;;;;;;5038112;28;20077;-67
2021/04/16 07:48:52;;;;;;;15.30;9.20;;;7.10;67.30;;;;;;5037214;28;20150;-67
2021/04/16 07:51:31;;;;;;;21.90;8.85;;;7.10;66.70;;;;;;5034720;28;20040;-68
2021/04/16 07:54:19;;;;;;;15.20;8.55;;;7.40;66.20;;;;;;5036576;28;20048;-67
2021/04/16 07:56:46;;;;;;;15.55;8.63;;;7.40;64.00;;;;;;5021706;28;20045;-68
2021/04/16 07:59:14;;;;;;;15.52;8.50;;;7.60;64.70;;;;;;5035500;28;20049;-72
2021/04/16 08:01:43;;;;;;;15.30;8.25;;;7.60;63.20;;;;;;5038806;28;20349;-66
2021/04/16 08:04:29;;;;;;;13.00;8.48;;;7.50;63.40;;;;;;5030187;28;20033;-67
2021/04/16 08:07:17;;;;;;;17.60;9.13;;;7.60;63.10;;;;;;5037434;28;20025;-67
2021/04/16 08:09:43;;;;;;;16.00;9.52;;;7.60;62.90;;;;;;5051893;28;20032;-67
2021/04/16 08:12:11;;;;;;;15.45;10.27;;;7.80;62.80;;;;;;5037309;28;20131;-66
2021/04/16 08:14:39;;;;;;;20.00;10.23;;;8.00;62.40;;;;;;5036384;28;20074;-69
2021/04/16 08:17:27;;;;;;;19.17;10.50;;;8.10;61.90;;;;;;5035092;28;20033;-69
2021/04/16 08:19:53;;;;;;;16.13;9.98;;;8.30;62.40;;;;;;5043397;28;20582;-68
2021/04/16 08:22:32;;;;;;;16.10;9.65;;;8.20;62.30;;;;;;5058202;28;20071;-68
2021/04/16 08:25:10;;;;;;;19.55;9.57;;;8.30;59.70;;;;;;5063100;28;20108;-67
2021/04/16 08:27:51;;;;;;;16.83;7.80;;;8.20;60.80;;;;;;5053223;28;20041;-68
2021/04/16 08:30:29;;;;;;;12.85;6.65;;;8.20;61.30;;;;;;5053821;28;20087;-68
2021/04/16 08:33:03;;;;;;;10.70;5.55;;;8.60;60.00;;;;;;5047269;28;20066;-67
2021/04/16 08:35:51;;;;;;;11.97;5.40;;;8.70;58.90;;;;;;5051202;28;20048;-68
2021/04/16 08:38:21;;;;;;;10.70;5.35;;;8.90;57.90;;;;;;5063940;28;20041;-71
2021/04/16 08:40:53;;;;;;;9.93;4.90;;;8.90;56.60;;;;;;5066180;28;20035;-68
2021/04/16 08:43:42;;;;;;;9.20;4.90;;;9.10;56.00;;;;;;5058936;28;20456;-68
2021/04/16 08:46:21;;;;;;;11.98;5.22;;;9.10;55.90;;;;;;5061281;28;20032;-68
2021/04/16 08:48:52;;;;;;;9.85;4.65;;;9.10;54.60;;;;;;5041686;28;20473;-69
2021/04/16 08:51:21;;;;;;;11.98;5.18;;;9.30;55.20;;;;;;5046691;28;20029;-69
2021/04/16 08:53:47;;;;;;;9.23;5.40;;;9.30;54.00;;;;;;5048595;28;20480;-67
2021/04/16 08:56:35;;;;;;;10.90;4.25;;;9.40;54.50;;;;;;5044384;28;20572;-67
2021/04/16 08:59:13;;;;;;;10.32;5.40;;;9.30;51.80;;;;;;5063432;28;20403;-66
2021/04/16 09:01:49;;;;;;;10.52;5.57;;;9.40;53.70;;;;;;5033232;28;20128;-67
2021/04/16 09:04:42;;;;;;;11.30;5.85;;;9.70;52.60;;;;;;5052712;28;20040;-67
2021/04/16 09:07:36;;;;;;;11.77;5.45;;;9.80;51.30;;;;;;5058271;28;20505;-67
2021/04/16 09:10:26;;;;;;;10.82;6.13;;;9.90;50.20;;;;;;5038705;28;20033;-68
2021/04/16 09:13:05;;;;;;;10.90;5.32;;;9.90;47.70;;;;;;5030779;28;20115;-68
2021/04/16 09:15:33;;;;;;;11.38;5.60;;;10.30;48.20;;;;;;5043082;28;20505;-69
2021/04/16 09:17:59;;;;;;;13.68;6.18;;;10.10;47.60;;;;;;5071335;28;20487;-68
2021/04/16 09:20:35;;;;;;;11.02;5.45;;;10.40;48.40;;;;;;5056498;28;20078;-67
2021/04/16 09:23:04;;;;;;;11.43;4.80;;;10.20;45.60;;;;;;5062296;28;20083;-70
2021/04/16 09:25:39;;;;;;;10.82;5.10;;;10.10;46.70;;;;;;5059952;28;20116;-69
2021/04/16 09:28:22;;;;;;;9.50;4.75;;;10.20;46.90;;;;;;5062218;28;20472;-73
2021/04/16 09:30:49;;;;;;;9.23;5.05;;;10.20;45.40;;;;;;5059985;28;20485;-71
2021/04/16 09:33:37;;;;;;;8.02;4.47;;;10.50;46.80;;;;;;5061486;28;20078;-71
2021/04/16 09:36:05;;;;;;;9.85;5.03;;;10.60;44.60;;;;;;5059545;28;20056;-68
2021/04/16 09:38:31;;;;;;;8.32;4.53;;;10.20;46.30;;;;;;5059971;28;20056;-69
2021/04/16 09:41:08;;;;;;;10.68;5.10;;;10.20;46.40;;;;;;5059637;28;20197;-68
2021/04/16 09:43:34;;;;;;;10.15;5.38;;;10.30;45.90;;;;;;5054783;28;20151;-66
2021/04/16 09:46:00;;;;;;;9.85;5.25;;;10.30;46.50;;;;;;5064287;28;20403;-66
2021/04/16 09:48:48;;;;;;;10.02;4.32;;;10.50;46.40;;;;;;5051001;28;20551;-66
2021/04/16 09:51:31;;;;;;;7.78;4.68;;;10.70;46.20;;;;;;5038443;28;20381;-67
2021/04/16 09:54:12;;;;;;;8.20;4.60;;;11.20;46.90;;;;;;5045394;28;21080;-68
2021/04/16 09:56:59;;;;;;;9.40;4.70;;;11.10;45.60;;;;;;5066139;28;20522;-67
2021/04/16 09:59:42;;;;;;;8.43;5.03;;;10.80;45.30;;;;;;5053401;28;20029;-67
2021/04/16 10:02:11;;;;;;;7.97;4.72;;;11.10;45.50;;;;;;5042179;28;20041;-68
2021/04/16 10:05:04;;;;;;;11.50;5.20;;;11.30;45.40;;;;;;5039493;28;20463;-69
2021/04/16 10:07:39;;;;;;;8.80;4.95;;;11.60;45.60;;;;;;5062733;28;20119;-67
2021/04/16 10:10:36;;;;;;;10.38;5.20;;;11.50;43.20;;;;;;5067797;28;20471;-66
2021/04/16 10:13:02;;;;;;;8.52;4.88;;;10.60;45.60;;;;;;5060042;28;20485;-68
2021/04/16 10:15:35;;;;;;;8.23;4.85;;;10.60;46.40;;;;;;5042453;28;20037;-68
2021/04/16 10:18:05;;;;;;;10.70;5.43;;;10.70;46.20;;;;;;5043543;28;20029;-67
2021/04/16 10:20:39;;;;;;;9.95;5.35;;;10.70;45.70;;;;;;5040743;28;20033;-69
2021/04/16 10:23:18;;;;;;;9.63;5.22;;;11.00;46.70;;;;;;5035938;28;20496;-68
2021/04/16 10:26:58;;;;;;;9.55;6.13;;;11.10;45.70;;;;;;5036779;28;20033;-68
2021/04/16 10:29:37;;;;;;;9.23;6.18;;;11.60;45.40;;;;;;5033273;28;20669;-67
2021/04/16 10:41:43;;;;;;;13.68;5.95;;;11.10;43.00;;;;;;5053682;28;20083;-70
2021/04/16 12:38:41;;;;;;;11.27;6.05;;;11.30;42.50;;;;;;5038340;28;20476;-70
2021/04/16 12:41:13;;;;;;;10.15;5.40;;;11.50;42.40;;;;;;5027014;28;20045;-66
2021/04/16 12:43:39;;;;;;;10.82;6.60;;;11.50;42.10;;;;;;5032244;28;20086;-66
2021/04/16 12:46:07;;;;;;;8.93;5.88;;;11.00;42.80;;;;;;5057106;28;20025;-67
2021/04/16 12:48:33;;;;;;;10.10;5.90;;;10.90;43.30;;;;;;5054257;28;20037;-69
2021/04/16 12:50:59;;;;;;;11.77;6.25;;;10.90;43.20;;;;;;5053743;28;20121;-67
2021/04/16 12:53:24;;;;;;;10.10;6.38;;;10.90;42.10;;;;;;5054010;28;20036;-67
2021/04/16 12:55:50;;;;;;;10.23;6.22;;;11.00;42.00;;;;;;5055118;28;20041;-67
2021/04/16 12:58:39;;;;;;;10.70;5.72;;;10.90;41.00;;;;;;5052332;28;20047;-66
2021/04/16 13:01:28;;;;;;;9.70;5.85;;;11.10;42.00;;;;;;5050104;28;20389;-67
2021/04/16 13:03:55;;;;;;;8.20;5.50;;;11.30;41.80;;;;;;5056790;28;20392;-66
2021/04/16 13:06:25;;;;;;;8.82;5.00;;;11.10;40.30;;;;;;5060054;28;20071;-66
2021/04/16 13:08:51;;;;;;;12.88;5.82;;;11.00;40.00;;;;;;5055650;28;20040;-66
2021/04/16 13:11:18;;;;;;;10.05;5.82;;;11.20;41.00;;;;;;5060060;28;20124;-66
2021/04/16 13:13:44;;;;;;;13.55;6.38;;;11.40;41.30;;;;;;5059511;28;20040;-67
2021/04/16 13:16:10;;;;;;;9.45;5.95;;;11.30;41.60;;;;;;5048716;28;20033;-66
2021/04/16 13:18:40;;;;;;;10.73;6.13;;;11.40;42.00;;;;;;5048362;28;20047;-66
2021/04/16 13:21:11;;;;;;;10.93;6.55;;;11.20;41.70;;;;;;5049560;28;20444;-66
2021/04/16 13:23:36;;;;;;;11.38;6.60;;;11.00;42.40;;;;;;5054071;28;20037;-67
2021/04/16 13:26:04;;;;;;;12.60;7.15;;;11.30;42.50;;;;;;5050703;28;20400;-66
2021/04/16 13:28:30;;;;;;;10.30;6.05;;;11.50;42.40;;;;;;5065961;28;20632;-71
2021/04/16 13:30:57;;;;;;;10.77;6.10;;;11.50;41.50;;;;;;5059710;28;20040;-67
2021/04/16 13:33:22;;;;;;;12.32;6.45;;;11.30;41.30;;;;;;5061096;28;20376;-66
2021/04/16 13:35:56;;;;;;;15.40;7.60;;;11.40;41.80;;;;;;5033598;28;20049;-69
2021/04/16 13:38:27;;;;;;;11.75;7.47;;;11.40;40.80;;;;;;5035751;28;20031;-69
2021/04/16 13:40:54;;;;;;;12.45;6.95;;;11.80;41.30;;;;;;5038323;28;20049;-68
2021/04/16 13:43:19;;;;;;;10.55;6.35;;;11.70;40.20;;;;;;5037550;28;20582;-70
2021/04/16 13:45:45;;;;;;;11.15;6.47;;;11.60;40.50;;;;;;5040901;28;20060;-66
2021/04/16 13:48:13;;;;;;;12.02;6.78;;;11.40;40.40;;;;;;5034642;28;20030;-68
2021/04/16 13:50:39;;;;;;;11.85;7.57;;;11.50;41.10;;;;;;5034356;28;20032;-67
2021/04/16 13:53:05;;;;;;;12.10;7.25;;;11.60;40.70;;;;;;5039625;28;20063;-68
2021/04/16 13:55:31;;;;;;;14.02;7.30;;;11.80;40.30;;;;;;5037684;28;20068;-67
2021/04/16 13:57:57;;;;;;;11.20;7.10;;;12.10;40.20;;;;;;5046171;28;20037;-68
2021/04/16 14:00:26;;;;;;;12.15;7.43;;;12.00;40.00;;;;;;5044041;28;20044;-67
2021/04/16 14:02:57;;;;;;;13.75;6.72;;;12.10;40.20;;;;;;5040790;28;20630;-66
2021/04/16 14:05:26;;;;;;;11.93;5.80;;;12.20;40.00;;;;;;5042882;28;20041;-69
2021/04/16 14:07:53;;;;;;;14.30;6.03;;;12.20;47.50;;;;;;5037171;28;20397;-67
2021/04/16 14:10:22;;;;;;;13.43;6.03;;;12.00;50.10;;;;;;5035627;28;20028;-68
2021/04/16 14:12:48;;;;;;;13.38;7.13;;;11.80;51.50;;;;;;5033718;28;20049;-70
2021/04/16 14:15:15;;;;;;;16.23;6.65;;;11.60;52.80;;;;;;5042923;28;20049;-68
2021/04/16 14:17:45;;;;;;;12.32;6.00;;;11.70;52.40;;;;;;5037284;28;20037;-67
2021/04/16 14:20:30;;;;;;;11.00;6.40;;;11.60;52.40;;;;;;5032928;28;20033;-67
2021/04/16 14:22:59;;;;;;;11.52;7.15;;;11.50;52.80;;;;;;5042308;28;20033;-67
2021/04/16 14:25:24;;;;;;;15.15;6.45;;;11.40;53.80;;;;;;5039577;28;20072;-67
2021/04/16 14:27:51;;;;;;;12.80;6.70;;;11.70;51.50;;;;;;5035503;28;20104;-67
2021/04/16 14:30:21;;;;;;;10.85;6.95;;;11.80;49.20;;;;;;5047151;28;20460;-68
2021/04/16 14:32:56;;;;;;;9.95;6.10;;;11.70;49.60;;;;;;5063933;28;20087;-67
2021/04/16 14:35:25;;;;;;;12.15;6.80;;;11.60;49.10;;;;;;5064184;28;20051;-68
2021/04/16 14:37:50;;;;;;;11.57;6.35;;;11.50;49.40;;;;;;5061236;28;20040;-70
2021/04/16 14:40:17;;;;;;;12.45;7.70;;;11.50;49.80;;;;;;5061785;28;20078;-68
2021/04/16 14:42:44;;;;;;;11.98;7.00;;;11.50;49.90;;;;;;5063020;28;20033;-68
2021/04/16 14:45:23;;;;;;;13.15;7.22;;;11.40;50.00;;;;;;5066444;28;20064;-68
2021/04/16 14:47:49;;;;;;;14.93;7.43;;;11.50;50.40;;;;;;5058991;28;20124;-67
2021/04/16 14:50:16;;;;;;;15.18;8.02;;;11.40;49.90;;;;;;5041224;28;20115;-69
2021/04/16 14:52:43;;;;;;;10.73;6.82;;;11.40;50.80;;;;;;5047734;28;20631;-68
2021/04/16 14:55:16;;;;;;;13.27;7.70;;;11.40;50.50;;;;;;5062169;28;20068;-69
2021/04/16 14:57:43;;;;;;;10.80;6.53;;;11.20;51.00;;;;;;5063705;28;20096;-70
2021/04/16 15:00:29;;;;;;;11.02;7.03;;;11.30;51.40;;;;;;5056354;28;20051;-71
2021/04/16 15:02:56;;;;;;;13.77;7.00;;;11.40;51.50;;;;;;5069725;28;20482;-72